メインページ
METAR-TAF:

METAR-TAF

空港 :

サンクトペテルブルク, ロシア

プルコヴォ空港

緯度: 59-58N, 経度: 030-18E, 海抜: 4m

現時点の気象観測

当レポートは36分前の04:30(UTC)に作成
変向風 2kt
気温 0°C
湿度 93%
気圧 1024 hPa
視程: 8000m
高度4300ftの千切れ雲あり

METAR: ULLI 210430Z VRB01MPS 8000 BKN043 M00/M01 Q1024 R28L/090060 NOSIG

時間: 08:06 (05:06 UTC)

予報

当レポートは3時間6分前の02:00(UTC)に作成
予報は21日の 03時(UTC)から 22日の 03時(UTC)まで有効
西の風 6kt
視程: 3100m
高度400ftの雲は散在している
高度2000ftの千切れ雲あり
浅い霧, 靄
21日の 03時(UTC)から 21日の 07時(UTC)まで一時的に
変向風 2kt
視程: 0300m
高度200ftの
着氷性の霧
21日の 07時(UTC)から 21日の 09時(UTC)まで徐々に
視程: 6000m
高度1100ftの雲は散在している
高度2000ftの千切れ雲あり
21日の 07時(UTC)から 21日の 09時(UTC)まで一時的に
高度400ftの雲は散在している
高度1100ftの千切れ雲あり
21日の 18時(UTC)から 22日の 03時(UTC)まで一時的に
視程: 3100m
高度1100ftの千切れ雲あり
高度1600ftの千切れ雲あり, 積乱雲.
弱いにわか雨, 雪

TAF: ULLI 210200Z 2103/2203 27003MPS 3100 MIFG BR SCT004 BKN020 TEMPO 2103/2107 VRB01MPS 0300 FZFG VV002 BECMG 2107/2109 6000 NSW SCT011 BKN020 TEMPO 2107/2109 SCT004 BKN011 TEMPO 2118/2203 3100 -SHRASN BKN011 BKN016CB

4,000以上の空港の気象観測と天気予報(METAR報とTAF報)

利用可能な観測所は地図上に黄色い丸と赤い丸で示す。

丸の上にカーソルを重ねると観測所名を参照できる。

次にクリックすると気象観測と天気予報を参照できる。

マップの切り替え:黒色「×」印の緑ボタンをクリックして拡大、「-」印の緑ボタンをクリックして縮小、緑色の三角印をクリックして隣りの地図に切り替え


METAR-TAF: